createdAt,value
2022-09-14T00:00:34.011Z,22.00
2022-09-14T00:03:05.174Z,22.03
2022-09-14T00:05:36.080Z,21.96
2022-09-14T00:08:36.152Z,22.10
2022-09-14T00:12:07.451Z,22.09
2022-09-14T00:15:06.993Z,22.04
2022-09-14T00:17:36.404Z,21.92
2022-09-14T00:24:18.520Z,21.78
2022-09-14T00:30:32.921Z,21.92
2022-09-14T00:33:01.694Z,21.90
2022-09-14T00:35:36.640Z,21.90
2022-09-14T00:38:04.829Z,21.97
2022-09-14T00:41:29.559Z,22.05
2022-09-14T00:45:31.921Z,22.09
2022-09-14T00:49:05.811Z,22.06
2022-09-14T00:56:43.625Z,22.06
2022-09-14T00:59:44.424Z,21.93
2022-09-14T01:03:11.433Z,22.09
2022-09-14T01:06:38.980Z,22.09
2022-09-14T01:14:16.053Z,21.79
2022-09-14T01:17:25.053Z,22.01
2022-09-14T01:20:23.044Z,21.83
2022-09-14T01:23:04.014Z,21.89
2022-09-14T01:29:01.191Z,21.85
2022-09-14T01:31:41.997Z,21.80
2022-09-14T01:34:27.408Z,21.70
2022-09-14T01:37:15.378Z,21.59
2022-09-14T01:40:15.842Z,21.53
2022-09-14T01:42:44.305Z,21.46
2022-09-14T01:45:14.835Z,21.40
2022-09-14T01:47:50.156Z,21.47
2022-09-14T01:50:47.321Z,21.54
2022-09-14T01:53:26.277Z,21.50
2022-09-14T01:55:57.564Z,21.58
2022-09-14T01:58:27.993Z,21.55
2022-09-14T02:01:05.897Z,21.54
2022-09-14T02:03:57.933Z,21.34
2022-09-14T02:06:52.748Z,21.34
2022-09-14T02:09:30.959Z,21.33
2022-09-14T02:12:01.231Z,21.19
2022-09-14T02:17:53.730Z,21.13
2022-09-14T02:20:32.858Z,21.22
2022-09-14T02:23:54.520Z,21.28
2022-09-14T02:26:29.227Z,21.26
2022-09-14T02:29:02.300Z,21.28
2022-09-14T02:31:43.902Z,21.33
2022-09-14T02:38:12.295Z,21.34
2022-09-14T02:40:42.110Z,21.40
2022-09-14T02:43:20.926Z,21.51
2022-09-14T02:46:18.227Z,21.57
2022-09-14T02:49:28.014Z,21.59
2022-09-14T02:52:06.294Z,21.56
2022-09-14T02:54:43.721Z,21.67
2022-09-14T02:57:12.393Z,21.65
2022-09-14T02:59:44.083Z,21.69
2022-09-14T03:02:19.348Z,21.71
2022-09-14T03:09:12.506Z,21.47
2022-09-14T03:22:18.716Z,21.59
2022-09-14T03:25:19.943Z,21.64
2022-09-14T03:27:53.802Z,21.60
2022-09-14T03:30:21.848Z,21.68
2022-09-14T03:33:07.553Z,21.67
2022-09-14T03:35:44.731Z,21.68
2022-09-14T03:38:44.167Z,21.68
2022-09-14T03:41:14.154Z,21.57
2022-09-14T03:43:42.390Z,21.72
2022-09-14T03:46:28.512Z,21.67
2022-09-14T03:49:19.461Z,21.81
2022-09-14T03:51:47.446Z,21.75
2022-09-14T03:55:19.286Z,21.89
2022-09-14T03:57:48.936Z,21.72
2022-09-14T04:00:41.487Z,21.69
2022-09-14T04:03:19.975Z,21.79
2022-09-14T04:05:56.708Z,21.81
2022-09-14T04:08:45.230Z,21.84
2022-09-14T04:11:15.127Z,21.79
2022-09-14T04:13:56.203Z,21.84
2022-09-14T04:16:31.304Z,21.74
2022-09-14T04:19:04.473Z,21.65
2022-09-14T04:21:56.721Z,21.80
2022-09-14T04:25:00.272Z,21.76
2022-09-14T04:27:32.406Z,21.66
2022-09-14T04:30:31.435Z,21.63
2022-09-14T04:33:01.260Z,21.51
2022-09-14T04:35:29.323Z,21.55
2022-09-14T04:37:57.360Z,21.47
2022-09-14T04:40:33.150Z,21.33
2022-09-14T04:43:36.036Z,21.50
2022-09-14T04:46:13.827Z,21.41
2022-09-14T04:48:46.714Z,21.30
2022-09-14T04:51:26.587Z,21.38
2022-09-14T04:53:56.433Z,21.37
2022-09-14T04:56:25.115Z,21.23
2022-09-14T04:59:01.856Z,21.36
2022-09-14T05:01:36.054Z,21.30
2022-09-14T05:07:17.512Z,21.31
2022-09-14T05:09:53.718Z,21.36
2022-09-14T05:12:22.267Z,21.25
2022-09-14T05:14:50.402Z,21.35
2022-09-14T05:17:19.894Z,21.30
2022-09-14T05:19:53.714Z,21.42
2022-09-14T05:22:43.002Z,21.46
2022-09-14T05:25:17.378Z,21.43
2022-09-14T05:27:45.599Z,21.42
2022-09-14T05:30:13.874Z,21.32
2022-09-14T05:32:46.427Z,21.38
2022-09-14T05:35:23.662Z,21.37
2022-09-14T05:37:57.820Z,21.34
2022-09-14T05:40:26.549Z,21.32
2022-09-14T05:42:59.784Z,21.20
2022-09-14T05:45:27.972Z,21.29
2022-09-14T05:47:57.471Z,21.20
2022-09-14T05:50:25.732Z,21.02
2022-09-14T05:52:53.735Z,21.21
2022-09-14T05:55:21.822Z,21.22
2022-09-14T05:57:56.324Z,21.22
2022-09-14T06:00:24.512Z,21.28
2022-09-14T06:02:59.668Z,21.26
2022-09-14T06:05:35.803Z,21.32
2022-09-14T06:09:01.337Z,21.45
2022-09-14T06:11:31.050Z,21.41
2022-09-14T06:14:03.192Z,21.27
2022-09-14T06:16:31.415Z,21.40
2022-09-14T06:19:01.056Z,21.36
2022-09-14T06:21:30.309Z,21.40
2022-09-14T06:23:59.371Z,21.36
2022-09-14T06:26:27.555Z,21.51
2022-09-14T06:28:57.574Z,21.46
2022-09-14T06:31:44.266Z,21.54
2022-09-14T06:34:19.168Z,21.52
2022-09-14T06:37:20.005Z,21.50
2022-09-14T06:39:55.718Z,21.49
2022-09-14T06:42:43.145Z,21.49
2022-09-14T06:45:11.626Z,21.46
2022-09-14T06:47:39.770Z,21.46
2022-09-14T06:50:09.724Z,21.34
2022-09-14T06:53:02.673Z,21.30
2022-09-14T06:55:51.626Z,21.29
2022-09-14T06:58:19.731Z,21.20
2022-09-14T07:00:47.870Z,21.34
2022-09-14T07:03:16.592Z,21.27
2022-09-14T07:05:47.915Z,21.30
2022-09-14T07:08:29.346Z,21.55
2022-09-14T07:11:03.582Z,21.56
2022-09-14T07:13:39.973Z,21.56
2022-09-14T07:16:30.927Z,21.62
2022-09-14T07:19:29.839Z,21.63
2022-09-14T07:22:02.747Z,21.62
2022-09-14T07:24:40.076Z,21.54
2022-09-14T07:27:25.662Z,21.59
2022-09-14T07:29:58.545Z,21.64
2022-09-14T07:39:26.876Z,21.46
2022-09-14T07:42:20.850Z,21.49
2022-09-14T07:44:56.511Z,21.49
2022-09-14T07:47:39.185Z,21.57
2022-09-14T07:50:09.723Z,21.61
2022-09-14T07:53:09.555Z,21.66
2022-09-14T07:55:49.144Z,21.64
2022-09-14T07:58:17.375Z,21.64
2022-09-14T08:00:46.987Z,21.65
2022-09-14T08:03:17.314Z,21.58
2022-09-14T08:05:48.110Z,21.64
2022-09-14T08:08:24.725Z,21.66
2022-09-14T08:10:56.135Z,21.61
2022-09-14T08:13:25.504Z,21.61
2022-09-14T08:15:59.138Z,21.60
2022-09-14T08:18:29.573Z,21.57
2022-09-14T08:20:58.005Z,21.53
2022-09-14T08:23:28.589Z,21.69
2022-09-14T08:26:10.803Z,21.65
2022-09-14T08:28:48.592Z,21.85
2022-09-14T08:31:19.405Z,21.95
2022-09-14T08:33:49.472Z,21.91
2022-09-14T08:36:20.091Z,22.11
2022-09-14T08:38:49.878Z,22.15
2022-09-14T08:41:33.333Z,22.33
2022-09-14T08:44:04.531Z,22.41
2022-09-14T08:46:36.006Z,22.56
2022-09-14T08:49:12.154Z,22.60
2022-09-14T08:51:40.430Z,22.66
2022-09-14T08:54:09.700Z,22.72
2022-09-14T08:56:56.858Z,22.67
2022-09-14T08:59:38.029Z,22.88
2022-09-14T09:11:26.002Z,23.27
2022-09-14T09:14:02.297Z,23.34
2022-09-14T09:19:35.529Z,23.74
2022-09-14T09:22:20.173Z,23.74
2022-09-14T09:27:35.126Z,23.94
2022-09-14T09:30:05.484Z,24.03
2022-09-14T09:32:36.456Z,24.27
2022-09-14T09:35:27.939Z,24.42
2022-09-14T09:38:01.548Z,24.58
2022-09-14T09:40:39.844Z,24.61
2022-09-14T09:43:10.124Z,24.82
2022-09-14T09:46:24.467Z,25.08
2022-09-14T09:48:57.860Z,25.24
2022-09-14T09:51:53.265Z,25.29
2022-09-14T09:54:27.671Z,25.40
2022-09-14T09:57:00.953Z,25.46
2022-09-14T09:59:41.971Z,25.55
2022-09-14T10:02:30.987Z,25.71
2022-09-14T10:05:02.047Z,25.89
2022-09-14T10:07:33.756Z,26.07
2022-09-14T10:10:13.053Z,26.27
2022-09-14T10:12:47.661Z,26.40
2022-09-14T10:15:34.389Z,26.42
2022-09-14T10:18:25.127Z,26.56
2022-09-14T10:21:07.771Z,26.75
2022-09-14T10:23:37.493Z,26.78
2022-09-14T10:26:27.055Z,27.09
2022-09-14T10:28:55.352Z,27.10
2022-09-14T10:31:31.239Z,27.30
2022-09-14T10:34:00.949Z,27.34
2022-09-14T10:36:30.991Z,27.51
2022-09-14T10:39:04.554Z,27.45
2022-09-14T10:41:40.198Z,27.51
2022-09-14T10:44:34.283Z,27.50
2022-09-14T10:47:49.871Z,27.64
2022-09-14T10:50:53.943Z,27.66
2022-09-14T10:53:44.582Z,27.69
2022-09-14T10:56:19.554Z,27.69
2022-09-14T10:59:27.624Z,27.84
2022-09-14T11:07:11.037Z,27.57
2022-09-14T11:09:43.567Z,27.21
2022-09-14T11:13:11.924Z,27.38
2022-09-14T11:18:34.694Z,27.22
2022-09-14T11:29:46.811Z,27.26
2022-09-14T11:37:17.460Z,27.29
2022-09-14T11:39:48.808Z,27.30
2022-09-14T11:42:23.237Z,27.37
2022-09-14T11:46:20.533Z,27.48
2022-09-14T12:02:26.661Z,28.78
2022-09-14T12:06:19.531Z,29.07
2022-09-14T12:17:56.031Z,29.75
2022-09-14T12:24:42.218Z,28.84
2022-09-14T12:27:45.574Z,28.50
2022-09-14T12:35:11.550Z,28.28
2022-09-14T12:37:46.124Z,28.44
2022-09-14T12:40:41.133Z,28.48
2022-09-14T12:44:21.343Z,28.49
2022-09-14T12:46:56.059Z,28.71
2022-09-14T12:49:32.765Z,29.05
2022-09-14T12:52:21.084Z,29.28
2022-09-14T12:55:21.274Z,29.56
2022-09-14T12:57:51.184Z,29.60
2022-09-14T13:00:23.005Z,29.52
2022-09-14T13:03:10.782Z,29.66
2022-09-14T13:05:39.037Z,29.89
2022-09-14T13:08:12.628Z,30.27
2022-09-14T13:11:09.732Z,30.40
2022-09-14T13:18:53.417Z,30.34
2022-09-14T13:21:28.690Z,30.37
2022-09-14T13:25:09.167Z,30.23
2022-09-14T13:27:57.714Z,29.75
2022-09-14T13:30:26.236Z,29.31
2022-09-14T13:37:56.462Z,29.42
2022-09-14T13:41:19.770Z,29.63
2022-09-14T13:44:11.991Z,29.66
2022-09-14T13:46:40.196Z,29.22
2022-09-14T13:49:17.298Z,29.16
2022-09-14T13:53:00.001Z,29.69
2022-09-14T13:58:17.020Z,30.10
2022-09-14T14:01:02.281Z,30.04
2022-09-14T14:03:53.137Z,30.21
2022-09-14T14:07:09.565Z,30.28
2022-09-14T14:09:46.909Z,29.97
2022-09-14T14:12:33.232Z,29.94
2022-09-14T14:15:02.271Z,29.83
2022-09-14T14:17:40.052Z,29.87
2022-09-14T14:20:37.397Z,30.09
2022-09-14T14:23:56.683Z,30.59
2022-09-14T14:26:33.846Z,30.98
2022-09-14T14:29:10.880Z,31.24
2022-09-14T14:31:43.756Z,31.39
2022-09-14T14:37:31.875Z,31.99
2022-09-14T14:40:36.024Z,32.38
2022-09-14T14:43:14.465Z,32.73
2022-09-14T14:45:45.092Z,32.76
2022-09-14T14:48:24.960Z,32.93
2022-09-14T14:51:15.362Z,32.97
2022-09-14T14:56:54.401Z,33.27
2022-09-14T14:59:33.507Z,33.38
2022-09-14T15:02:05.583Z,33.16
2022-09-14T15:04:33.880Z,32.57
2022-09-14T15:07:04.831Z,32.46
2022-09-14T15:10:02.179Z,32.58
2022-09-14T15:12:34.359Z,32.68
2022-09-14T15:15:05.323Z,32.69
2022-09-14T15:17:37.898Z,32.52
2022-09-14T15:20:07.159Z,31.98
2022-09-14T15:22:42.483Z,32.05
2022-09-14T15:25:16.790Z,31.74
2022-09-14T15:27:46.124Z,31.55
2022-09-14T15:30:21.105Z,31.66
2022-09-14T15:32:51.634Z,31.71
2022-09-14T15:35:24.445Z,31.73
2022-09-14T15:37:54.090Z,31.73
2022-09-14T15:40:24.097Z,31.56
2022-09-14T15:42:56.031Z,31.67
2022-09-14T15:45:26.083Z,31.68
2022-09-14T15:47:54.381Z,31.72
2022-09-14T15:50:25.831Z,31.82
2022-09-14T15:53:11.440Z,31.38
2022-09-14T15:55:44.395Z,31.36
2022-09-14T15:58:14.368Z,31.32
2022-09-14T16:00:49.412Z,31.38
2022-09-14T16:03:22.507Z,31.50
2022-09-14T16:05:51.095Z,31.37
2022-09-14T16:08:20.921Z,31.28
2022-09-14T16:10:49.188Z,30.98
2022-09-14T16:13:18.408Z,30.89
2022-09-14T16:15:49.168Z,30.87
2022-09-14T16:18:17.687Z,30.21
2022-09-14T16:24:16.847Z,30.01
2022-09-14T16:27:08.644Z,30.06
2022-09-14T16:29:39.479Z,30.18
2022-09-14T16:37:01.331Z,29.12
2022-09-14T16:39:31.755Z,28.69
2022-09-14T16:46:23.299Z,27.58
2022-09-14T16:48:55.421Z,27.77
2022-09-14T16:54:09.023Z,28.99
2022-09-14T16:56:39.106Z,29.23
2022-09-14T16:59:21.345Z,29.40
2022-09-14T17:01:56.567Z,29.44
2022-09-14T17:04:31.642Z,29.46
2022-09-14T17:10:27.293Z,29.42
2022-09-14T17:13:51.694Z,29.17
2022-09-14T17:16:50.452Z,28.90
2022-09-14T17:19:18.815Z,29.09
2022-09-14T17:25:30.365Z,28.72
2022-09-14T17:28:11.127Z,28.63
2022-09-14T17:30:54.537Z,28.50
2022-09-14T17:33:54.974Z,28.18
2022-09-14T17:36:41.595Z,27.97
2022-09-14T17:39:14.054Z,27.97
2022-09-14T17:41:44.166Z,27.68
2022-09-14T17:44:43.187Z,27.39
2022-09-14T17:48:02.384Z,27.22
2022-09-14T17:50:34.721Z,26.89
2022-09-14T17:53:04.928Z,26.71
2022-09-14T17:55:33.785Z,26.21
2022-09-14T17:58:03.125Z,26.08
2022-09-14T18:00:34.532Z,25.87
2022-09-14T18:03:03.195Z,25.42
2022-09-14T18:05:31.658Z,24.78
2022-09-14T18:08:01.455Z,24.46
2022-09-14T18:10:53.645Z,24.16
2022-09-14T18:13:22.072Z,23.77
2022-09-14T18:16:07.964Z,23.66
2022-09-14T18:18:38.058Z,23.27
2022-09-14T18:21:10.227Z,22.71
2022-09-14T18:23:46.499Z,22.64
2022-09-14T18:26:16.689Z,22.47
2022-09-14T18:28:46.422Z,22.18
2022-09-14T18:31:17.155Z,22.31
2022-09-14T18:33:50.482Z,22.27
2022-09-14T18:36:18.847Z,22.17
2022-09-14T18:38:54.568Z,22.18
2022-09-14T18:41:25.163Z,22.09
2022-09-14T18:43:56.065Z,21.92
2022-09-14T18:46:27.856Z,22.02
2022-09-14T18:48:58.386Z,21.93
2022-09-14T18:51:26.686Z,21.82
2022-09-14T18:53:58.526Z,21.79
2022-09-14T18:56:26.820Z,21.74
2022-09-14T18:58:55.014Z,21.67
2022-09-14T19:01:23.216Z,21.60
2022-09-14T19:03:53.814Z,21.55
2022-09-14T19:06:22.288Z,21.56
2022-09-14T19:09:49.250Z,21.52
2022-09-14T19:15:03.609Z,21.48
2022-09-14T19:17:44.092Z,21.43
2022-09-14T19:20:12.510Z,21.36
2022-09-14T19:22:40.813Z,21.41
2022-09-14T19:25:09.634Z,21.37
2022-09-14T19:27:53.554Z,21.14
2022-09-14T19:30:21.687Z,21.17
2022-09-14T19:32:56.519Z,21.20
2022-09-14T19:35:24.569Z,21.19
2022-09-14T19:37:55.711Z,21.16
2022-09-14T19:40:24.498Z,21.14
2022-09-14T19:43:15.307Z,21.12
2022-09-14T19:45:43.480Z,21.08
2022-09-14T19:48:11.557Z,21.11
2022-09-14T19:50:39.604Z,21.09
2022-09-14T19:53:07.631Z,21.00
2022-09-14T19:55:38.635Z,20.90
2022-09-14T19:58:07.223Z,21.04
2022-09-14T20:00:38.379Z,21.06
2022-09-14T20:03:06.619Z,21.01
2022-09-14T20:05:44.764Z,21.00
2022-09-14T20:08:16.390Z,20.98
2022-09-14T20:10:44.455Z,20.99
2022-09-14T20:13:12.489Z,21.00
2022-09-14T20:15:44.469Z,20.82
2022-09-14T20:18:12.657Z,20.96
2022-09-14T20:20:55.331Z,20.84
2022-09-14T20:23:25.800Z,20.72
2022-09-14T20:25:53.800Z,20.72
2022-09-14T20:28:40.741Z,20.77
2022-09-14T20:31:22.064Z,20.71
2022-09-14T20:33:56.044Z,20.64
2022-09-14T20:36:25.334Z,20.72
2022-09-14T20:39:02.329Z,20.63
2022-09-14T20:41:31.144Z,20.69
2022-09-14T20:44:03.720Z,20.72
2022-09-14T20:46:39.960Z,20.73
2022-09-14T20:49:17.083Z,20.61
2022-09-14T20:52:02.965Z,20.69
2022-09-14T20:54:39.892Z,20.65
2022-09-14T20:57:11.092Z,20.69
2022-09-14T20:59:39.324Z,20.70
2022-09-14T21:03:01.151Z,20.73
2022-09-14T21:05:31.192Z,20.77
2022-09-14T21:08:05.877Z,20.76
2022-09-14T21:10:33.990Z,20.78
2022-09-14T21:13:04.808Z,20.77
2022-09-14T21:15:33.762Z,20.65
2022-09-14T21:18:02.322Z,20.84
2022-09-14T21:20:31.722Z,20.88
2022-09-14T21:22:59.780Z,20.85
2022-09-14T21:25:34.123Z,20.84
2022-09-14T21:28:10.070Z,20.83
2022-09-14T21:30:38.634Z,20.81
2022-09-14T21:33:14.624Z,20.78
2022-09-14T21:35:54.249Z,20.77
2022-09-14T21:38:22.319Z,20.84
2022-09-14T21:40:50.537Z,20.90
2022-09-14T21:43:18.665Z,20.92
2022-09-14T21:45:46.724Z,20.87
2022-09-14T21:48:43.095Z,20.94
2022-09-14T21:51:21.489Z,20.87
2022-09-14T21:53:50.505Z,20.87
2022-09-14T21:56:20.085Z,20.89
2022-09-14T21:58:50.738Z,20.90
2022-09-14T22:01:18.935Z,20.79
2022-09-14T22:03:47.692Z,20.87
2022-09-14T22:06:17.448Z,20.71
2022-09-14T22:08:45.454Z,20.89
2022-09-14T22:11:23.632Z,20.94
2022-09-14T22:14:14.611Z,20.89
2022-09-14T22:16:48.904Z,20.97
2022-09-14T22:19:25.714Z,21.01
2022-09-14T22:22:11.401Z,21.03
2022-09-14T22:24:41.992Z,21.05
2022-09-14T22:27:10.661Z,21.10
2022-09-14T22:29:38.770Z,21.13
2022-09-14T22:32:11.996Z,21.12
2022-09-14T22:34:53.270Z,21.08
2022-09-14T22:37:24.791Z,21.07
2022-09-14T22:40:13.453Z,21.01
2022-09-14T22:42:41.526Z,20.99
2022-09-14T22:45:24.321Z,21.06
2022-09-14T22:47:52.549Z,21.05
2022-09-14T22:50:23.325Z,21.09
2022-09-14T22:52:52.888Z,21.05
2022-09-14T22:55:21.215Z,21.04
2022-09-14T22:57:52.466Z,21.01
2022-09-14T23:00:21.610Z,21.12
2022-09-14T23:02:52.534Z,21.01
2022-09-14T23:05:21.995Z,21.11
2022-09-14T23:07:51.959Z,21.04
2022-09-14T23:10:30.030Z,21.16
2022-09-14T23:12:58.562Z,21.15
2022-09-14T23:15:51.355Z,21.16
2022-09-14T23:18:19.454Z,21.13
2022-09-14T23:20:50.499Z,21.10
2022-09-14T23:26:05.704Z,21.06
2022-09-14T23:28:33.835Z,21.04
2022-09-14T23:31:02.098Z,21.06
2022-09-14T23:33:33.080Z,21.10
2022-09-14T23:36:01.165Z,20.92
2022-09-14T23:38:30.513Z,21.10
2022-09-14T23:41:02.774Z,21.14
2022-09-14T23:43:33.900Z,21.11
2022-09-14T23:46:04.630Z,21.06
2022-09-14T23:48:32.872Z,21.03
2022-09-14T23:51:01.947Z,21.09
2022-09-14T23:53:31.430Z,21.13
2022-09-14T23:56:01.503Z,21.14
2022-09-14T23:58:29.695Z,21.15
